Portada
METAR-TAF:

METAR-TAF

Aeroports :

Brighton, Anglaterra

latitud: 50-50N, longitud: 000-17W, altitud: 2 m

Observació

L'informe es va fer fa 8 hores i 18 minuts, a les 19:50 UTC
Vent 17 kt del Sud-Oest
Temperatura 10°C
Humitat 93%
Pressió 1023 hPa
Visibilitat: 4300 m
Núvols disperses a una alçada de 3400 ft

METAR: EGKA 221950Z 23017KT 8000 4300SE SCT034 10/09 Q1023

Hora: 04:08 (04:08 UTC)

Pronòstic

L'informe es va fer fa 11 hores i 17 minuts, a les 16:51 UTC
Pronòstic vàlid del 22 a les 18 UTC al 22 a les 20 UTC
Vent 18 kt del Oest/Sud-Oest
Visibilitat 10 km o més
Núvols disperses a una alçada de 2500 ft
Temporalment
l' 22 a les 18 UTC al 22 a les 20 UTC
Visibilitat: 7000 m

TAF: EGKA 221651Z 2218/2220 25018KT 9999 SCT025 TEMPO 2218/2220 7000

Observacions i pronòstics meteorològics de més de 4000 aeroports (METAR i TAF).

Les estacions disponibles són els punts grocs i vermells al mapa.

Posi el ratolí al punt desitjat per veure el nom de l'estació.

Feu clic per veure les observacions i els pronòstics meteorològics.

Per canviar el mapa: feu clic els botons verds amb una creu de color negre per apropar; al botó verd amb un guió per allunyar la imatge; o en les fletxes verdes per a mapes adjacents.


METAR-TAF: